createdAt,value
2023-03-26T00:00:11.696Z,60.88
2023-03-26T00:03:19.516Z,60.39
2023-03-26T00:06:24.688Z,61.09
2023-03-26T00:09:29.309Z,62.43
2023-03-26T00:12:33.478Z,61.84
2023-03-26T00:15:38.021Z,60.58
2023-03-26T00:18:42.304Z,60.07
2023-03-26T00:21:46.513Z,57.16
2023-03-26T00:24:50.770Z,57.11
2023-03-26T00:27:54.857Z,56.48
2023-03-26T00:31:00.235Z,57.49
2023-03-26T00:34:04.165Z,61.73
2023-03-26T00:37:08.144Z,62.80
2023-03-26T00:40:11.932Z,61.70
2023-03-26T00:43:38.400Z,61.36
2023-03-26T00:46:41.573Z,60.32
2023-03-26T00:49:56.172Z,60.47
2023-03-26T00:53:00.381Z,60.76
2023-03-26T00:56:06.784Z,62.68
2023-03-26T00:59:12.090Z,61.30
2023-03-26T01:02:16.178Z,62.64
2023-03-26T01:05:21.886Z,62.42
2023-03-26T01:08:26.070Z,64.12
2023-03-26T01:11:30.042Z,61.85
2023-03-26T01:14:34.015Z,60.28
2023-03-26T01:17:48.412Z,61.32
2023-03-26T01:20:56.873Z,59.84
2023-03-26T01:24:05.491Z,58.35
2023-03-26T01:27:09.615Z,60.47
2023-03-26T01:30:14.038Z,61.64
2023-03-26T01:33:18.327Z,60.11
2023-03-26T01:36:23.950Z,62.51
2023-03-26T01:39:28.291Z,61.84
2023-03-26T01:42:32.190Z,62.05
2023-03-26T01:45:37.501Z,62.07
2023-03-26T01:48:45.945Z,63.81
2023-03-26T01:51:52.747Z,62.27
2023-03-26T01:54:57.032Z,59.88
2023-03-26T01:58:00.925Z,60.41
2023-03-26T02:01:04.947Z,60.25
2023-03-26T02:04:09.288Z,61.16
2023-03-26T02:07:14.451Z,61.71
2023-03-26T02:10:23.230Z,58.85
2023-03-26T02:13:27.527Z,59.93
2023-03-26T02:16:31.848Z,60.89
2023-03-26T02:19:35.930Z,63.05
2023-03-26T02:22:41.191Z,61.42
2023-03-26T02:26:03.629Z,63.47
2023-03-26T02:29:30.357Z,59.39
2023-03-26T02:32:33.859Z,59.92
2023-03-26T02:35:38.073Z,60.15
2023-03-26T02:40:11.221Z,58.10
2023-03-26T02:42:15.291Z,58.35
2023-03-26T02:45:19.357Z,58.98
2023-03-26T02:48:23.144Z,58.30
2023-03-26T02:51:49.743Z,57.72
2023-03-26T02:54:53.180Z,59.41
2023-03-26T02:57:59.651Z,59.70
2023-03-26T03:01:05.236Z,59.92
2023-03-26T03:04:09.524Z,60.22
2023-03-26T03:07:13.187Z,60.29
2023-03-26T03:10:17.198Z,60.41
2023-03-26T03:13:25.641Z,62.18
2023-03-26T03:16:30.670Z,61.60
2023-03-26T03:19:35.762Z,61.93
2023-03-26T03:23:02.709Z,62.92
2023-03-26T03:26:06.186Z,62.31
2023-03-26T03:29:11.442Z,60.96
2023-03-26T03:32:15.391Z,61.23
2023-03-26T03:35:19.428Z,60.82
2023-03-26T03:38:33.967Z,60.95
2023-03-26T03:41:42.455Z,60.95
2023-03-26T03:44:46.706Z,60.29
2023-03-26T03:47:50.722Z,60.54
2023-03-26T03:50:57.733Z,61.02
2023-03-26T03:54:03.204Z,60.47
2023-03-26T03:57:07.193Z,60.25
2023-03-26T04:00:14.466Z,60.56
2023-03-26T04:03:18.387Z,59.19
2023-03-26T04:06:22.632Z,59.02
2023-03-26T04:09:29.403Z,58.33
2023-03-26T04:12:33.615Z,58.27
2023-03-26T04:15:37.643Z,57.46
2023-03-26T04:18:43.178Z,57.33
2023-03-26T04:21:47.286Z,57.34
2023-03-26T04:24:55.380Z,57.28
2023-03-26T04:27:59.703Z,57.60
2023-03-26T04:31:05.464Z,58.57
2023-03-26T04:34:09.515Z,59.18
2023-03-26T04:37:13.417Z,61.52
2023-03-26T04:40:17.468Z,62.81
2023-03-26T04:43:21.457Z,64.35
2023-03-26T04:46:25.275Z,64.82
2023-03-26T04:49:33.791Z,64.59
2023-03-26T04:52:45.709Z,64.08
2023-03-26T04:55:50.092Z,64.71
2023-03-26T04:58:55.148Z,63.46
2023-03-26T05:01:59.450Z,65.34
2023-03-26T05:05:05.230Z,65.76
2023-03-26T05:08:31.964Z,65.69
2023-03-26T05:11:35.507Z,66.26
2023-03-26T05:14:45.685Z,68.35
2023-03-26T05:17:54.002Z,69.31
2023-03-26T05:20:59.544Z,69.35
2023-03-26T05:24:03.684Z,69.30
2023-03-26T05:27:07.590Z,69.00
2023-03-26T05:30:12.111Z,69.13
2023-03-26T05:33:15.976Z,68.44
2023-03-26T05:36:19.893Z,67.57
2023-03-26T05:39:23.909Z,68.47
2023-03-26T05:42:28.291Z,68.31
2023-03-26T05:45:32.313Z,69.62
2023-03-26T05:48:37.102Z,68.07
2023-03-26T05:51:40.862Z,68.21
2023-03-26T05:54:48.723Z,68.74
2023-03-26T05:57:53.126Z,67.34
2023-03-26T06:00:57.009Z,68.48
2023-03-26T06:07:25.824Z,67.36
2023-03-26T06:10:56.140Z,69.87
2023-03-26T06:13:56.756Z,70.91
2023-03-26T06:17:00.610Z,71.45
2023-03-26T06:20:24.940Z,70.72
2023-03-26T06:23:51.979Z,72.24
2023-03-26T06:26:55.084Z,73.50
2023-03-26T06:29:59.541Z,72.54
2023-03-26T06:33:03.624Z,72.72
2023-03-26T06:36:18.166Z,72.62
2023-03-26T06:46:19.925Z,71.36
2023-03-26T06:56:16.481Z,72.29
2023-03-26T07:02:46.970Z,71.84
2023-03-26T07:05:54.725Z,72.69
2023-03-26T07:09:05.456Z,71.43
2023-03-26T07:12:13.922Z,70.36
2023-03-26T07:15:18.967Z,69.74
2023-03-26T07:18:27.758Z,70.30
2023-03-26T07:21:38.120Z,70.50
2023-03-26T07:24:45.224Z,68.64
2023-03-26T07:27:50.535Z,70.40
2023-03-26T07:30:56.064Z,69.61
2023-03-26T07:34:01.404Z,70.44
2023-03-26T07:37:05.888Z,69.34
2023-03-26T07:40:09.898Z,69.02
2023-03-26T07:43:14.058Z,70.81
2023-03-26T07:46:18.358Z,71.95
2023-03-26T07:49:23.437Z,71.05
2023-03-26T07:52:27.421Z,71.25
2023-03-26T07:55:31.660Z,71.15
2023-03-26T07:58:35.551Z,70.99
2023-03-26T08:01:39.715Z,71.55
2023-03-26T08:04:43.878Z,70.19
2023-03-26T08:07:49.586Z,69.33
2023-03-26T08:10:54.039Z,70.33
2023-03-26T08:13:58.247Z,70.15
2023-03-26T08:17:02.017Z,71.58
2023-03-26T08:20:05.889Z,72.65
2023-03-26T08:23:09.967Z,72.67
2023-03-26T08:26:13.756Z,71.41
2023-03-26T08:29:17.505Z,71.71
2023-03-26T08:32:21.651Z,71.54
2023-03-26T08:35:27.138Z,69.93
2023-03-26T08:38:32.388Z,69.43
2023-03-26T09:04:50.941Z,67.22
2023-03-26T09:45:40.778Z,71.29
2023-03-26T09:57:15.835Z,70.95
2023-03-26T10:19:32.639Z,70.42
2023-03-26T10:29:42.221Z,71.51
2023-03-26T10:38:47.069Z,68.64
2023-03-26T10:42:05.897Z,67.96
2023-03-26T11:37:03.079Z,68.03
2023-03-26T11:40:09.722Z,69.56
2023-03-26T11:50:18.776Z,70.17
2023-03-26T11:53:29.597Z,72.98
2023-03-26T11:57:04.390Z,77.50
2023-03-26T12:00:12.440Z,79.92
2023-03-26T12:03:19.841Z,77.30
2023-03-26T13:16:46.656Z,73.28
2023-03-26T13:23:28.117Z,68.63
2023-03-26T13:33:26.707Z,72.51
2023-03-26T13:36:37.530Z,70.82
2023-03-26T13:43:34.723Z,67.46
2023-03-26T13:54:19.014Z,70.45
2023-03-26T13:57:43.712Z,67.06
2023-03-26T14:01:08.655Z,68.21
2023-03-26T14:04:19.494Z,66.09
2023-03-26T14:07:15.174Z,67.30
2023-03-26T14:10:23.842Z,67.07
2023-03-26T14:13:50.950Z,67.27
2023-03-26T14:44:50.302Z,68.20
2023-03-26T15:41:47.699Z,58.34
2023-03-26T15:48:03.098Z,57.13
2023-03-26T15:51:13.884Z,55.71
2023-03-26T15:54:22.540Z,54.81
2023-03-26T15:57:26.603Z,52.11
2023-03-26T16:00:30.645Z,53.80
2023-03-26T16:03:38.425Z,55.33
2023-03-26T16:06:44.335Z,56.86
2023-03-26T16:09:48.718Z,55.65
2023-03-26T16:12:54.515Z,55.51
2023-03-26T16:19:26.457Z,57.55
2023-03-26T16:22:47.838Z,55.38
2023-03-26T16:26:04.012Z,58.04
2023-03-26T16:29:10.752Z,56.92
2023-03-26T16:32:17.850Z,57.40
2023-03-26T16:35:22.306Z,57.20
2023-03-26T16:38:26.295Z,56.23
2023-03-26T16:41:30.475Z,56.99
2023-03-26T16:44:34.698Z,55.75
2023-03-26T16:47:38.726Z,55.47
2023-03-26T16:50:42.660Z,55.50
2023-03-26T16:53:46.753Z,56.29
2023-03-26T16:56:50.650Z,56.91
2023-03-26T17:00:05.486Z,57.32
2023-03-26T17:03:11.324Z,58.17
2023-03-26T17:06:15.510Z,57.93
2023-03-26T17:09:19.560Z,58.37
2023-03-26T17:12:23.663Z,59.85
2023-03-26T17:15:27.715Z,58.52
2023-03-26T17:18:31.979Z,59.68
2023-03-26T17:21:46.271Z,60.86
2023-03-26T17:24:50.945Z,59.77
2023-03-26T17:27:54.784Z,62.12
2023-03-26T17:30:58.774Z,63.08
2023-03-26T17:34:03.213Z,62.44
2023-03-26T17:37:07.388Z,62.88
2023-03-26T17:40:11.348Z,64.14
2023-03-26T17:43:15.324Z,62.03
2023-03-26T17:46:19.117Z,60.41
2023-03-26T17:49:22.973Z,60.48
2023-03-26T17:52:27.016Z,59.35
2023-03-26T17:55:30.877Z,61.75
2023-03-26T17:58:34.828Z,58.34
2023-03-26T18:01:38.958Z,59.39
2023-03-26T18:04:43.146Z,60.75
2023-03-26T18:07:47.565Z,62.21
2023-03-26T18:10:51.273Z,61.31
2023-03-26T18:13:55.286Z,61.25
2023-03-26T18:16:59.172Z,62.52
2023-03-26T18:20:03.349Z,66.69
2023-03-26T18:23:07.284Z,65.79
2023-03-26T18:26:11.057Z,66.67
2023-03-26T18:29:15.253Z,71.02
2023-03-26T18:32:19.160Z,69.00
2023-03-26T18:35:23.354Z,72.07
2023-03-26T18:38:35.623Z,71.93
2023-03-26T18:41:41.551Z,69.60
2023-03-26T18:44:45.558Z,68.42
2023-03-26T18:47:49.676Z,69.95
2023-03-26T18:50:53.633Z,68.14
2023-03-26T18:53:57.501Z,69.13
2023-03-26T18:57:01.543Z,69.33
2023-03-26T19:00:19.072Z,70.30
2023-03-26T19:03:23.055Z,68.68
2023-03-26T19:06:27.161Z,68.56
2023-03-26T19:09:32.554Z,64.11
2023-03-26T19:12:36.536Z,65.79
2023-03-26T19:15:40.765Z,64.32
2023-03-26T19:18:44.665Z,64.46
2023-03-26T19:21:48.826Z,66.60
2023-03-26T19:24:52.795Z,68.26
2023-03-26T19:27:56.646Z,65.99
2023-03-26T19:31:00.972Z,65.73
2023-03-26T19:34:05.116Z,67.69
2023-03-26T19:37:09.073Z,67.76
2023-03-26T19:40:12.960Z,66.50
2023-03-26T19:43:16.868Z,66.21
2023-03-26T19:46:21.017Z,66.76
2023-03-26T19:49:27.196Z,66.76
2023-03-26T19:52:32.211Z,66.92
2023-03-26T19:55:36.226Z,65.79
2023-03-26T19:58:39.913Z,67.25
2023-03-26T20:01:43.954Z,67.03
2023-03-26T20:04:48.144Z,65.79
2023-03-26T20:07:52.037Z,63.76
2023-03-26T20:10:56.288Z,64.43
2023-03-26T20:14:00.330Z,65.14
2023-03-26T20:17:05.339Z,65.38
2023-03-26T20:20:17.377Z,65.29
2023-03-26T20:23:22.609Z,65.77
2023-03-26T20:26:26.675Z,65.60
2023-03-26T20:29:30.807Z,66.51
2023-03-26T20:32:34.851Z,65.05
2023-03-26T20:35:38.838Z,66.85
2023-03-26T20:38:42.919Z,68.14
2023-03-26T20:41:47.304Z,68.66
2023-03-26T20:44:51.488Z,67.98
2023-03-26T20:47:55.377Z,66.11
2023-03-26T20:50:59.372Z,66.07
2023-03-26T20:54:03.529Z,69.07
2023-03-26T20:57:07.497Z,68.77
2023-03-26T21:00:11.438Z,67.67
2023-03-26T21:03:15.400Z,67.84
2023-03-26T21:06:19.526Z,67.70
2023-03-26T21:09:23.816Z,64.61
2023-03-26T21:12:30.372Z,65.64
2023-03-26T21:15:34.287Z,66.82
2023-03-26T21:18:38.475Z,67.35
2023-03-26T21:21:42.360Z,66.50
2023-03-26T21:24:46.276Z,66.93
2023-03-26T21:27:50.428Z,66.36
2023-03-26T21:30:54.616Z,66.83
2023-03-26T21:33:58.909Z,69.46
2023-03-26T21:37:03.004Z,70.77
2023-03-26T21:40:08.016Z,70.53
2023-03-26T21:43:12.363Z,70.30
2023-03-26T21:46:16.600Z,68.51
2023-03-26T21:49:20.662Z,67.60
2023-03-26T21:52:24.699Z,69.15
2023-03-26T21:55:28.875Z,69.49
2023-03-26T21:58:33.128Z,70.28
2023-03-26T22:01:37.067Z,70.09
2023-03-26T22:04:41.061Z,69.83
2023-03-26T22:07:45.055Z,71.46
2023-03-26T22:10:49.209Z,70.33
2023-03-26T22:13:55.360Z,69.24
2023-03-26T22:16:59.339Z,70.20
2023-03-26T22:20:03.087Z,68.79
2023-03-26T22:23:07.001Z,69.85
2023-03-26T22:26:11.035Z,71.01
2023-03-26T22:29:15.154Z,68.68
2023-03-26T22:32:19.075Z,69.48
2023-03-26T22:35:23.114Z,69.76
2023-03-26T22:38:27.096Z,68.29
2023-03-26T22:41:31.120Z,67.79
2023-03-26T22:44:34.887Z,69.31
2023-03-26T22:47:40.972Z,67.95
2023-03-26T22:50:44.625Z,69.36
2023-03-26T22:53:49.007Z,70.18
2023-03-26T22:56:53.172Z,68.85
2023-03-26T22:59:57.184Z,69.91
2023-03-26T23:03:01.317Z,70.34
2023-03-26T23:06:05.205Z,69.32
2023-03-26T23:09:09.358Z,69.21
2023-03-26T23:12:13.514Z,68.59
2023-03-26T23:15:17.414Z,69.28
2023-03-26T23:18:21.690Z,68.78
2023-03-26T23:21:25.985Z,70.68
2023-03-26T23:24:30.221Z,69.95
2023-03-26T23:27:34.273Z,69.86
2023-03-26T23:30:38.272Z,70.59
2023-03-26T23:33:42.192Z,69.52
2023-03-26T23:36:46.220Z,69.83
2023-03-26T23:39:50.192Z,69.19
2023-03-26T23:42:53.979Z,68.93
2023-03-26T23:45:59.706Z,69.34
2023-03-26T23:49:03.854Z,70.51
2023-03-26T23:52:07.726Z,70.02
2023-03-26T23:55:11.741Z,68.89
2023-03-26T23:58:15.504Z,69.59
